KDAN/DAN METAR and TAF weather

Enter ICAO airport designator
Station Type Date Time Source
KDAN METAR 2021/09/23 17:53 UTC NOAA

KDAN 231753Z AUTO 31009G16KT 10SM SCT041 22/09 A2994 RMK AO2 SLP131 T02220094 10228 20133 51001


Station Type Date Time Source
KDAN Decoded METAR 2021/09/23 17:53 UTC NOAA

DANVILLE REGIONAL AIRPORT, VA, United States (KDAN) 36-34N 079-20W 175M
Sep 23, 2021 - 01:53 PM EDT / 2021.09.23 1753 UTC
Wind: from the NW (310 degrees) at 10 MPH (9 KT) gusting to 18 MPH (16 KT):0
Visibility: 10 mile(s):0
Sky conditions: partly cloudy
Temperature: 72.0 F (22.2 C)
Dew Point: 48.9 F (9.4 C)
Relative Humidity: 44%
Pressure (altimeter): 29.94 in. Hg (1013 hPa)
Pressure tendency: 0.00 inches (0.1 hPa) higher than three hours ago
ob: KDAN 231753Z AUTO 31009G16KT 10SM SCT041 22/09 A2994 RMK AO2 SLP131 T02220094 10228 20133 51001
cycle: 18

Station Type Date Time Source
KDAN TAF 2021/09/23 18:22 UTC NOAA

TAF KDAN 231720Z 2318/2418 33008G16KT P6SM FEW050
FM232300 30005KT P6SM SKC

Example: see airport list